Time,TemperatureF,DewpointF,PressureIn,WindDirection,WindDirectionDegrees,WindSpeedMPH,WindSpeedGustMPH,Humidity,HourlyPrecipIn,Conditions,Clouds,dailyrainin,SoftwareType,DateUTC
2013-10-25 00:00:00,47.6,47.6,30.12,West,270,0.0,0.0,99,0.00,,,0.00,NetBSD+Arduino,2013-10-25 07:00:00,
2013-10-25 00:05:00,47.7,47.6,30.12,NW,315,0.0,0.0,99,0.00,,,0.00,NetBSD+Arduino,2013-10-25 07:05:00,
2013-10-25 00:10:00,47.7,47.6,30.12,East,90,0.0,1.5,99,0.00,,,0.00,NetBSD+Arduino,2013-10-25 07:10:00,
2013-10-25 00:16:00,47.5,47.4,30.12,South,180,4.2,4.5,99,0.00,,,0.00,NetBSD+Arduino,2013-10-25 07:16:00,
2013-10-25 00:21:00,47.4,47.3,30.13,South,180,3.9,6.0,99,0.00,,,0.00,NetBSD+Arduino,2013-10-25 07:21:00,
2013-10-25 00:26:00,47.4,47.3,30.13,SW,225,1.2,4.5,99,0.00,,,0.00,NetBSD+Arduino,2013-10-25 07:26:00,
2013-10-25 00:31:00,47.4,47.3,30.13,South,180,3.3,6.0,99,0.00,,,0.00,NetBSD+Arduino,2013-10-25 07:31:00,
2013-10-25 00:36:00,47.3,47.3,30.13,South,180,1.8,4.5,99,0.00,,,0.00,NetBSD+Arduino,2013-10-25 07:36:00,
2013-10-25 00:41:00,47.2,47.2,30.13,South,180,3.9,7.5,99,0.00,,,0.00,NetBSD+Arduino,2013-10-25 07:41:00,
2013-10-25 00:46:00,47.2,47.1,30.14,East,90,1.2,7.5,99,0.00,,,0.00,NetBSD+Arduino,2013-10-25 07:46:00,
2013-10-25 00:51:00,47.0,47.0,30.13,SW,225,3.6,6.0,99,0.00,,,0.00,NetBSD+Arduino,2013-10-25 07:51:00,
2013-10-25 00:56:00,47.1,47.0,30.14,South,180,2.2,3.0,99,0.00,,,0.00,NetBSD+Arduino,2013-10-25 07:56:00,
2013-10-25 01:01:00,46.9,46.9,30.14,SW,225,0.0,3.0,100,0.00,,,0.00,NetBSD+Arduino,2013-10-25 08:01:00,
2013-10-25 01:06:00,46.8,46.8,30.14,South,180,2.1,6.0,100,0.00,,,0.00,NetBSD+Arduino,2013-10-25 08:06:00,
2013-10-25 01:11:00,46.6,46.6,30.15,South,180,2.7,7.5,100,0.00,,,0.00,NetBSD+Arduino,2013-10-25 08:11:00,
2013-10-25 01:16:00,46.6,46.6,30.14,East,90,0.7,4.5,100,0.00,,,0.00,NetBSD+Arduino,2013-10-25 08:16:00,
2013-10-25 01:21:00,46.7,46.7,30.14,SW,225,2.0,4.5,100,0.00,,,0.00,NetBSD+Arduino,2013-10-25 08:21:00,
2013-10-25 01:26:00,46.5,46.5,30.15,South,180,3.0,4.5,100,0.00,,,0.00,NetBSD+Arduino,2013-10-25 08:26:00,
2013-10-25 01:31:00,46.5,46.5,30.15,South,180,2.4,4.5,100,0.00,,,0.00,NetBSD+Arduino,2013-10-25 08:31:00,
2013-10-25 01:36:00,46.4,46.4,30.15,South,180,2.0,6.0,100,0.00,,,0.00,NetBSD+Arduino,2013-10-25 08:36:00,
2013-10-25 01:41:00,46.4,46.4,30.15,South,180,2.1,4.5,100,0.00,,,0.00,NetBSD+Arduino,2013-10-25 08:41:00,
2013-10-25 01:46:00,46.4,46.4,30.15,South,180,2.1,4.5,100,0.00,,,0.00,NetBSD+Arduino,2013-10-25 08:46:00,
2013-10-25 01:51:00,46.4,46.4,30.15,South,180,2.7,4.5,100,0.00,,,0.00,NetBSD+Arduino,2013-10-25 08:51:00,
2013-10-25 01:56:00,46.3,46.3,30.15,South,180,0.5,6.0,100,0.00,,,0.00,NetBSD+Arduino,2013-10-25 08:56:00,
2013-10-25 02:01:00,46.4,46.4,30.15,South,180,2.4,3.0,100,0.00,,,0.00,NetBSD+Arduino,2013-10-25 09:01:00,
2013-10-25 02:06:00,46.4,46.4,30.15,South,180,3.0,4.5,100,0.00,,,0.00,NetBSD+Arduino,2013-10-25 09:06:00,
2013-10-25 02:12:00,46.4,46.4,30.15,SW,225,1.8,4.5,100,0.00,,,0.00,NetBSD+Arduino,2013-10-25 09:12:00,
2013-10-25 02:17:00,46.5,46.5,30.15,SW,225,2.7,4.5,100,0.00,,,0.00,NetBSD+Arduino,2013-10-25 09:17:00,
2013-10-25 02:22:00,46.5,46.5,30.15,South,180,2.0,3.0,100,0.00,,,0.00,NetBSD+Arduino,2013-10-25 09:22:00,
2013-10-25 02:27:00,46.5,46.5,30.15,SW,225,0.0,3.0,100,0.00,,,0.00,NetBSD+Arduino,2013-10-25 09:27:00,
2013-10-25 02:32:00,46.5,46.5,30.15,SW,225,0.0,3.0,100,0.00,,,0.00,NetBSD+Arduino,2013-10-25 09:32:00,
2013-10-25 02:37:00,46.4,46.4,30.16,South,180,0.0,0.0,100,0.00,,,0.00,NetBSD+Arduino,2013-10-25 09:37:00,
2013-10-25 02:42:00,46.5,46.5,30.16,North,0,0.0,0.0,100,0.00,,,0.00,NetBSD+Arduino,2013-10-25 09:42:00,
2013-10-25 02:47:00,46.5,46.5,30.16,East,90,0.0,3.0,100,0.00,,,0.00,NetBSD+Arduino,2013-10-25 09:47:00,
2013-10-25 02:52:00,46.5,46.5,30.17,West,270,0.0,0.0,100,0.00,,,0.00,NetBSD+Arduino,2013-10-25 09:52:00,
2013-10-25 02:57:00,46.6,46.6,30.17,West,270,0.0,0.0,100,0.00,,,0.00,NetBSD+Arduino,2013-10-25 09:57:00,
2013-10-25 03:02:00,46.7,46.7,30.17,West,270,0.0,0.0,100,0.00,,,0.00,NetBSD+Arduino,2013-10-25 10:02:00,
2013-10-25 03:07:00,46.7,46.7,30.17,SW,225,0.0,0.0,100,0.00,,,0.00,NetBSD+Arduino,2013-10-25 10:07:00,
2013-10-25 03:12:00,46.7,46.7,30.17,East,90,0.0,0.0,100,0.00,,,0.00,NetBSD+Arduino,2013-10-25 10:12:00,
2013-10-25 03:17:00,46.7,46.7,30.17,East,90,0.0,0.0,100,0.00,,,0.00,NetBSD+Arduino,2013-10-25 10:17:00,
2013-10-25 03:23:00,46.7,46.7,30.17,East,90,0.0,0.0,100,0.00,,,0.00,NetBSD+Arduino,2013-10-25 10:23:00,
2013-10-25 03:28:00,46.7,46.7,30.17,SW,225,1.2,3.0,100,0.00,,,0.00,NetBSD+Arduino,2013-10-25 10:28:00,
2013-10-25 03:33:00,46.7,46.7,30.17,South,180,1.0,3.0,100,0.00,,,0.00,NetBSD+Arduino,2013-10-25 10:33:00,
2013-10-25 03:38:00,46.7,46.7,30.17,South,180,1.7,3.0,100,0.00,,,0.00,NetBSD+Arduino,2013-10-25 10:38:00,
2013-10-25 03:43:00,46.7,46.7,30.17,East,90,0.0,3.0,100,0.00,,,0.00,NetBSD+Arduino,2013-10-25 10:43:00,
2013-10-25 03:48:00,46.8,46.8,30.17,South,180,2.4,4.5,100,0.00,,,0.00,NetBSD+Arduino,2013-10-25 10:48:00,
2013-10-25 03:53:00,46.7,46.7,30.17,South,180,2.2,4.5,100,0.00,,,0.00,NetBSD+Arduino,2013-10-25 10:53:00,
2013-10-25 03:58:00,46.7,46.7,30.17,South,180,3.0,4.5,100,0.00,,,0.00,NetBSD+Arduino,2013-10-25 10:58:00,
2013-10-25 04:03:00,46.7,46.7,30.17,SW,225,0.2,4.5,100,0.00,,,0.00,NetBSD+Arduino,2013-10-25 11:03:00,
2013-10-25 04:08:00,46.7,46.7,30.17,SW,225,1.5,1.5,100,0.00,,,0.00,NetBSD+Arduino,2013-10-25 11:08:00,
2013-10-25 04:13:00,46.8,46.8,30.17,SW,225,1.0,3.0,100,0.00,,,0.00,NetBSD+Arduino,2013-10-25 11:13:00,
2013-10-25 04:18:00,46.8,46.8,30.17,South,180,1.2,3.0,100,0.00,,,0.00,NetBSD+Arduino,2013-10-25 11:18:00,
2013-10-25 04:23:00,46.9,46.9,30.17,South,180,0.0,3.0,100,0.00,,,0.00,NetBSD+Arduino,2013-10-25 11:23:00,
2013-10-25 04:28:00,46.9,46.9,30.17,South,180,0.0,3.0,100,0.00,,,0.00,NetBSD+Arduino,2013-10-25 11:28:00,
2013-10-25 04:33:00,46.9,46.9,30.17,South,180,1.5,1.5,100,0.00,,,0.00,NetBSD+Arduino,2013-10-25 11:33:00,
2013-10-25 04:38:00,47.1,47.1,30.17,SW,225,1.2,3.0,100,0.00,,,0.00,NetBSD+Arduino,2013-10-25 11:38:00,
2013-10-25 04:43:00,47.1,47.1,30.17,SW,225,1.5,3.0,100,0.00,,,0.00,NetBSD+Arduino,2013-10-25 11:43:00,
2013-10-25 04:48:00,47.1,47.1,30.18,SW,225,1.2,3.0,100,0.00,,,0.00,NetBSD+Arduino,2013-10-25 11:48:00,
2013-10-25 04:53:00,47.2,47.2,30.18,South,180,1.2,3.0,100,0.00,,,0.00,NetBSD+Arduino,2013-10-25 11:53:00,
2013-10-25 04:58:00,47.2,47.2,30.19,South,180,0.5,3.0,100,0.00,,,0.00,NetBSD+Arduino,2013-10-25 11:58:00,
2013-10-25 05:03:00,47.2,47.2,30.19,South,180,2.0,3.0,100,0.00,,,0.00,NetBSD+Arduino,2013-10-25 12:03:00,
2013-10-25 05:08:00,47.2,47.2,30.19,SW,225,1.2,3.0,100,0.00,,,0.00,NetBSD+Arduino,2013-10-25 12:08:00,
2013-10-25 05:13:00,47.2,47.2,30.19,East,90,0.0,3.0,100,0.00,,,0.00,NetBSD+Arduino,2013-10-25 12:13:00,
2013-10-25 05:18:00,47.2,47.2,30.18,East,90,0.7,3.0,100,0.00,,,0.00,NetBSD+Arduino,2013-10-25 12:18:00,
2013-10-25 05:23:00,47.3,47.3,30.19,South,180,0.0,3.0,100,0.00,,,0.00,NetBSD+Arduino,2013-10-25 12:23:00,
2013-10-25 05:28:00,47.3,47.3,30.19,South,180,0.0,3.0,100,0.00,,,0.00,NetBSD+Arduino,2013-10-25 12:28:00,
2013-10-25 05:33:00,47.4,47.4,30.19,South,180,0.5,1.5,100,0.00,,,0.00,NetBSD+Arduino,2013-10-25 12:33:00,
2013-10-25 05:38:00,47.4,47.4,30.19,South,180,1.7,3.0,100,0.00,,,0.00,NetBSD+Arduino,2013-10-25 12:38:00,
2013-10-25 05:43:00,47.4,47.4,30.19,South,180,0.0,3.0,100,0.00,,,0.00,NetBSD+Arduino,2013-10-25 12:43:00,
2013-10-25 05:48:00,47.4,47.4,30.19,East,90,0.0,3.0,100,0.00,,,0.00,NetBSD+Arduino,2013-10-25 12:48:00,
2013-10-25 05:53:00,47.4,47.4,30.19,South,180,3.0,4.5,100,0.00,,,0.00,NetBSD+Arduino,2013-10-25 12:53:00,
2013-10-25 05:58:00,47.4,47.4,30.19,South,180,3.5,4.5,100,0.00,,,0.00,NetBSD+Arduino,2013-10-25 12:58:00,
2013-10-25 06:03:00,47.4,47.4,30.19,South,180,2.2,4.5,100,0.00,,,0.00,NetBSD+Arduino,2013-10-25 13:03:00,
2013-10-25 06:08:00,47.5,47.5,30.19,South,180,2.5,4.5,100,0.00,,,0.00,NetBSD+Arduino,2013-10-25 13:08:00,
2013-10-25 06:13:00,47.4,47.4,30.19,SW,225,3.7,4.5,100,0.00,,,0.00,NetBSD+Arduino,2013-10-25 13:13:00,
2013-10-25 06:18:00,47.4,47.4,30.19,South,180,2.0,4.5,100,0.00,,,0.00,NetBSD+Arduino,2013-10-25 13:18:00,
2013-10-25 06:23:00,47.4,47.4,30.19,South,180,0.6,3.0,100,0.00,,,0.00,NetBSD+Arduino,2013-10-25 13:23:00,
2013-10-25 06:28:00,47.4,47.4,30.19,South,180,1.7,4.5,100,0.00,,,0.00,NetBSD+Arduino,2013-10-25 13:28:00,
2013-10-25 06:33:00,47.4,47.4,30.20,South,180,3.0,4.5,100,0.00,,,0.00,NetBSD+Arduino,2013-10-25 13:33:00,
2013-10-25 06:38:00,47.4,47.4,30.20,South,180,2.1,6.0,100,0.00,,,0.00,NetBSD+Arduino,2013-10-25 13:38:00,
2013-10-25 06:43:00,47.4,47.4,30.20,South,180,1.5,4.5,100,0.00,,,0.00,NetBSD+Arduino,2013-10-25 13:43:00,
2013-10-25 06:48:00,47.4,47.4,30.20,South,180,3.6,4.5,100,0.02,,,0.02,NetBSD+Arduino,2013-10-25 13:48:00,
2013-10-25 06:53:00,47.4,47.4,30.20,South,180,2.4,4.5,100,0.02,,,0.02,NetBSD+Arduino,2013-10-25 13:53:00,
2013-10-25 06:58:00,47.2,47.2,30.20,South,180,3.0,6.0,100,0.02,,,0.02,NetBSD+Arduino,2013-10-25 13:58:00,
2013-10-25 07:03:00,47.2,47.2,30.20,South,180,3.6,6.0,100,0.02,,,0.02,NetBSD+Arduino,2013-10-25 14:03:00,
2013-10-25 07:08:00,47.2,47.2,30.20,SW,225,2.2,4.5,100,0.02,,,0.02,NetBSD+Arduino,2013-10-25 14:08:00,
2013-10-25 07:13:00,47.2,47.2,30.20,SW,225,1.8,3.0,100,0.02,,,0.02,NetBSD+Arduino,2013-10-25 14:13:00,
2013-10-25 07:18:00,47.2,47.2,30.20,South,180,2.1,4.5,100,0.02,,,0.02,NetBSD+Arduino,2013-10-25 14:18:00,
2013-10-25 07:23:00,47.2,47.2,30.20,South,180,1.2,4.5,100,0.02,,,0.02,NetBSD+Arduino,2013-10-25 14:23:00,
2013-10-25 07:28:00,47.2,47.2,30.20,SW,225,2.7,4.5,100,0.02,,,0.02,NetBSD+Arduino,2013-10-25 14:28:00,
2013-10-25 07:33:00,47.2,47.2,30.21,SW,225,2.7,7.5,100,0.02,,,0.02,NetBSD+Arduino,2013-10-25 14:33:00,
2013-10-25 07:38:00,47.1,47.1,30.21,South,180,4.2,7.5,100,0.02,,,0.02,NetBSD+Arduino,2013-10-25 14:38:00,
2013-10-25 07:43:00,47.1,47.1,30.22,South,180,3.3,7.5,100,0.02,,,0.02,NetBSD+Arduino,2013-10-25 14:43:00,
2013-10-25 07:48:00,47.1,47.1,30.22,East,90,1.5,6.0,100,0.00,,,0.02,NetBSD+Arduino,2013-10-25 14:48:00,
2013-10-25 07:53:00,47.0,47.0,30.22,South,180,2.4,4.5,100,0.00,,,0.02,NetBSD+Arduino,2013-10-25 14:53:00,
2013-10-25 07:58:00,47.0,47.0,30.22,South,180,1.2,4.5,100,0.00,,,0.02,NetBSD+Arduino,2013-10-25 14:58:00,
2013-10-25 08:03:00,46.9,46.9,30.22,SW,225,3.0,6.0,100,0.00,,,0.02,NetBSD+Arduino,2013-10-25 15:03:00,
2013-10-25 08:08:00,46.8,46.8,30.22,SW,225,4.8,9.0,100,0.00,,,0.02,NetBSD+Arduino,2013-10-25 15:08:00,
2013-10-25 08:13:00,46.7,46.7,30.23,SW,225,3.6,9.0,100,0.00,,,0.02,NetBSD+Arduino,2013-10-25 15:13:00,
2013-10-25 08:18:00,46.7,46.7,30.23,SW,225,2.4,7.5,100,0.00,,,0.02,NetBSD+Arduino,2013-10-25 15:18:00,
2013-10-25 08:23:00,46.8,46.8,30.23,SW,225,2.5,6.0,100,0.00,,,0.02,NetBSD+Arduino,2013-10-25 15:23:00,
2013-10-25 08:28:00,46.8,46.8,30.23,South,180,3.3,7.5,100,0.00,,,0.02,NetBSD+Arduino,2013-10-25 15:28:00,
2013-10-25 08:33:00,46.8,46.8,30.23,East,90,2.1,6.0,100,0.00,,,0.02,NetBSD+Arduino,2013-10-25 15:33:00,
2013-10-25 08:38:00,46.9,46.9,30.24,SW,225,1.8,6.0,100,0.00,,,0.02,NetBSD+Arduino,2013-10-25 15:38:00,
2013-10-25 08:43:00,46.9,46.9,30.24,East,90,0.0,4.5,100,0.00,,,0.02,NetBSD+Arduino,2013-10-25 15:43:00,
2013-10-25 08:48:00,47.0,47.0,30.24,SW,225,1.8,6.0,100,0.00,,,0.02,NetBSD+Arduino,2013-10-25 15:48:00,
2013-10-25 08:53:00,46.9,46.9,30.24,SW,225,4.2,7.5,100,0.00,,,0.02,NetBSD+Arduino,2013-10-25 15:53:00,
2013-10-25 08:58:00,47.0,47.0,30.25,South,180,3.2,6.0,100,0.00,,,0.02,NetBSD+Arduino,2013-10-25 15:58:00,
2013-10-25 09:03:00,47.0,47.0,30.25,SW,225,3.5,6.0,100,0.00,,,0.02,NetBSD+Arduino,2013-10-25 16:03:00,
2013-10-25 09:08:00,47.0,46.9,30.25,South,180,1.5,9.0,100,0.00,,,0.02,NetBSD+Arduino,2013-10-25 16:08:00,
2013-10-25 09:13:00,46.9,46.9,30.25,South,180,4.2,7.5,100,0.00,,,0.02,NetBSD+Arduino,2013-10-25 16:13:00,
2013-10-25 09:18:00,46.8,46.8,30.25,South,180,2.4,9.0,100,0.00,,,0.02,NetBSD+Arduino,2013-10-25 16:18:00,
2013-10-25 09:23:00,46.9,46.9,30.25,South,180,6.9,7.5,100,0.00,,,0.02,NetBSD+Arduino,2013-10-25 16:23:00,
2013-10-25 09:28:00,46.8,46.8,30.25,South,180,2.7,7.5,100,0.00,,,0.02,NetBSD+Arduino,2013-10-25 16:28:00,
2013-10-25 09:33:00,46.7,46.7,30.25,SW,225,3.2,7.5,100,0.00,,,0.02,NetBSD+Arduino,2013-10-25 16:33:00,
2013-10-25 09:38:00,46.7,46.7,30.25,South,180,5.1,9.0,100,0.00,,,0.02,NetBSD+Arduino,2013-10-25 16:38:00,
2013-10-25 09:43:00,46.7,46.7,30.25,South,180,5.7,9.0,100,0.00,,,0.02,NetBSD+Arduino,2013-10-25 16:43:00,
2013-10-25 09:48:00,46.7,46.7,30.26,SW,225,0.6,7.5,100,0.00,,,0.02,NetBSD+Arduino,2013-10-25 16:48:00,
2013-10-25 09:53:00,46.8,46.8,30.25,South,180,2.2,6.0,100,0.00,,,0.02,NetBSD+Arduino,2013-10-25 16:53:00,
2013-10-25 09:58:00,46.8,46.8,30.26,South,180,0.0,4.5,100,0.00,,,0.02,NetBSD+Arduino,2013-10-25 16:58:00,
2013-10-25 10:03:00,46.7,46.7,30.26,South,180,0.5,7.5,100,0.00,,,0.02,NetBSD+Arduino,2013-10-25 17:03:00,
2013-10-25 10:08:00,46.9,46.9,30.26,South,180,2.0,4.5,100,0.00,,,0.02,NetBSD+Arduino,2013-10-25 17:08:00,
2013-10-25 10:13:00,46.8,46.8,30.27,SW,225,0.2,6.0,100,0.00,,,0.02,NetBSD+Arduino,2013-10-25 17:13:00,
2013-10-25 10:18:00,47.1,47.1,30.27,South,180,1.8,4.5,100,0.00,,,0.02,NetBSD+Arduino,2013-10-25 17:18:00,
2013-10-25 10:23:00,47.2,47.2,30.27,South,180,1.8,4.5,100,0.00,,,0.02,NetBSD+Arduino,2013-10-25 17:23:00,
2013-10-25 10:28:00,47.4,47.4,30.27,SE,135,1.2,3.0,100,0.00,,,0.02,NetBSD+Arduino,2013-10-25 17:28:00,
2013-10-25 10:33:00,47.5,47.5,30.27,South,180,1.2,3.0,100,0.00,,,0.02,NetBSD+Arduino,2013-10-25 17:33:00,
2013-10-25 10:39:00,47.7,47.7,30.27,South,180,1.7,6.0,100,0.00,,,0.02,NetBSD+Arduino,2013-10-25 17:39:00,
2013-10-25 10:44:00,48.0,47.9,30.27,South,180,4.2,6.0,99,0.00,,,0.02,NetBSD+Arduino,2013-10-25 17:44:00,
2013-10-25 10:49:00,48.2,48.2,30.27,SW,225,3.2,4.5,99,0.00,,,0.02,NetBSD+Arduino,2013-10-25 17:49:00,
2013-10-25 10:54:00,48.2,48.2,30.27,South,180,2.5,4.5,99,0.00,,,0.02,NetBSD+Arduino,2013-10-25 17:54:00,
2013-10-25 10:59:00,48.0,47.7,30.27,South,180,2.5,6.0,99,0.00,,,0.02,NetBSD+Arduino,2013-10-25 17:59:00,
2013-10-25 11:04:00,48.0,47.8,30.27,South,180,2.7,6.0,99,0.00,,,0.02,NetBSD+Arduino,2013-10-25 18:04:00,
2013-10-25 11:09:00,48.4,48.2,30.27,East,90,0.0,3.0,99,0.00,,,0.02,NetBSD+Arduino,2013-10-25 18:09:00,
2013-10-25 11:14:00,48.4,48.2,30.27,SW,225,1.5,6.0,99,0.00,,,0.02,NetBSD+Arduino,2013-10-25 18:14:00,
2013-10-25 11:19:00,48.3,48.1,30.27,South,180,1.0,4.5,99,0.00,,,0.02,NetBSD+Arduino,2013-10-25 18:19:00,
2013-10-25 11:24:00,48.4,48.2,30.27,South,180,3.2,6.0,99,0.00,,,0.02,NetBSD+Arduino,2013-10-25 18:24:00,
2013-10-25 11:29:00,48.3,48.1,30.27,South,180,3.3,6.0,99,0.00,,,0.02,NetBSD+Arduino,2013-10-25 18:29:00,
2013-10-25 11:34:00,48.5,48.2,30.28,South,180,2.5,4.5,99,0.00,,,0.02,NetBSD+Arduino,2013-10-25 18:34:00,
2013-10-25 11:36:00,48.4,48.2,30.28,SW,225,1.8,4.5,99,0.00,,,0.02,NetBSD+Arduino,2013-10-25 18:36:00,
2013-10-25 11:41:00,48.4,48.1,30.28,South,180,3.5,4.5,98,0.00,,,0.02,NetBSD+Arduino,2013-10-25 18:41:00,
2013-10-25 11:46:00,48.6,48.4,30.28,South,180,0.9,4.5,99,0.00,,,0.02,NetBSD+Arduino,2013-10-25 18:46:00,
2013-10-25 11:51:00,48.8,48.4,30.28,SW,225,0.7,4.5,98,0.00,,,0.02,NetBSD+Arduino,2013-10-25 18:51:00,
2013-10-25 11:56:00,48.8,48.4,30.29,SW,225,1.2,4.5,98,0.00,,,0.02,NetBSD+Arduino,2013-10-25 18:56:00,
2013-10-25 12:01:00,49.1,48.7,30.29,SW,225,0.5,3.0,98,0.00,,,0.02,NetBSD+Arduino,2013-10-25 19:01:00,
2013-10-25 12:06:00,49.1,48.5,30.28,SW,225,0.5,3.0,97,0.00,,,0.02,NetBSD+Arduino,2013-10-25 19:06:00,
2013-10-25 12:11:00,49.2,48.6,30.28,South,180,1.0,4.5,97,0.00,,,0.02,NetBSD+Arduino,2013-10-25 19:11:00,
2013-10-25 12:16:00,49.2,48.6,30.29,South,180,1.2,4.5,97,0.00,,,0.02,NetBSD+Arduino,2013-10-25 19:16:00,
2013-10-25 12:21:00,49.2,48.4,30.29,SW,225,1.2,3.0,96,0.00,,,0.02,NetBSD+Arduino,2013-10-25 19:21:00,
2013-10-25 12:26:00,49.4,48.7,30.28,SW,225,0.0,3.0,97,0.00,,,0.02,NetBSD+Arduino,2013-10-25 19:26:00,
2013-10-25 12:31:00,49.4,48.6,30.29,SW,225,3.2,4.5,96,0.00,,,0.02,NetBSD+Arduino,2013-10-25 19:31:00,
2013-10-25 12:36:00,49.2,48.4,30.29,SW,225,0.0,4.5,96,0.00,,,0.02,NetBSD+Arduino,2013-10-25 19:36:00,
2013-10-25 12:41:00,49.1,48.3,30.29,East,90,0.7,1.5,96,0.00,,,0.02,NetBSD+Arduino,2013-10-25 19:41:00,
2013-10-25 12:46:00,49.1,48.3,30.29,East,90,2.0,3.0,96,0.00,,,0.02,NetBSD+Arduino,2013-10-25 19:46:00,
2013-10-25 12:51:00,49.1,48.3,30.29,East,90,0.2,3.0,96,0.00,,,0.02,NetBSD+Arduino,2013-10-25 19:51:00,
2013-10-25 12:56:00,49.1,48.2,30.29,NE,45,1.0,3.0,96,0.00,,,0.02,NetBSD+Arduino,2013-10-25 19:56:00,
2013-10-25 13:01:00,49.6,48.8,30.28,East,90,0.0,1.5,97,0.00,,,0.02,NetBSD+Arduino,2013-10-25 20:01:00,
2013-10-25 13:06:00,49.5,48.5,30.28,North,0,0.0,3.0,96,0.00,,,0.02,NetBSD+Arduino,2013-10-25 20:06:00,
2013-10-25 13:11:00,49.6,48.6,30.29,SW,225,1.5,3.0,96,0.00,,,0.02,NetBSD+Arduino,2013-10-25 20:11:00,
2013-10-25 13:16:00,49.5,48.3,30.29,SW,225,0.0,3.0,95,0.00,,,0.02,NetBSD+Arduino,2013-10-25 20:16:00,
2013-10-25 13:21:00,49.8,48.8,30.29,NE,45,1.2,3.0,96,0.00,,,0.02,NetBSD+Arduino,2013-10-25 20:21:00,
2013-10-25 13:26:00,50.0,48.8,30.29,NE,45,1.2,3.0,95,0.00,,,0.02,NetBSD+Arduino,2013-10-25 20:26:00,
2013-10-25 13:31:00,50.1,48.9,30.28,NE,45,0.0,3.0,95,0.00,,,0.02,NetBSD+Arduino,2013-10-25 20:31:00,
2013-10-25 13:36:00,50.6,49.4,30.28,South,180,0.9,4.5,95,0.00,,,0.02,NetBSD+Arduino,2013-10-25 20:36:00,
2013-10-25 13:41:00,50.7,49.2,30.28,SW,225,0.0,4.5,94,0.00,,,0.02,NetBSD+Arduino,2013-10-25 20:41:00,
2013-10-25 13:46:00,51.0,49.5,30.28,South,180,1.0,6.0,94,0.00,,,0.02,NetBSD+Arduino,2013-10-25 20:46:00,
2013-10-25 13:52:00,51.4,49.9,30.28,NW,315,0.0,4.5,94,0.00,,,0.02,NetBSD+Arduino,2013-10-25 20:52:00,
2013-10-25 13:57:00,51.6,50.0,30.29,South,180,2.1,3.0,94,0.00,,,0.02,NetBSD+Arduino,2013-10-25 20:57:00,
2013-10-25 14:02:00,51.4,49.2,30.29,East,90,2.2,3.0,92,0.00,,,0.02,NetBSD+Arduino,2013-10-25 21:02:00,
2013-10-25 14:07:00,51.1,49.1,30.28,NE,45,1.5,4.5,92,0.00,,,0.02,NetBSD+Arduino,2013-10-25 21:07:00,
2013-10-25 14:12:00,51.4,49.6,30.28,East,90,0.0,4.5,93,0.00,,,0.02,NetBSD+Arduino,2013-10-25 21:12:00,
2013-10-25 14:17:00,51.5,49.7,30.28,South,180,1.0,4.5,93,0.00,,,0.02,NetBSD+Arduino,2013-10-25 21:17:00,
2013-10-25 14:22:00,51.7,49.6,30.28,NE,45,2.2,3.0,92,0.00,,,0.02,NetBSD+Arduino,2013-10-25 21:22:00,
2013-10-25 14:27:00,51.8,49.6,30.28,East,90,1.7,4.5,92,0.00,,,0.02,NetBSD+Arduino,2013-10-25 21:27:00,
2013-10-25 14:32:00,52.0,49.7,30.28,NE,45,2.6,4.5,91,0.00,,,0.02,NetBSD+Arduino,2013-10-25 21:32:00,
2013-10-25 14:37:00,52.3,49.9,30.28,South,180,3.0,6.0,91,0.00,,,0.02,NetBSD+Arduino,2013-10-25 21:37:00,
2013-10-25 14:42:00,52.1,49.8,30.28,SW,225,2.1,4.5,91,0.00,,,0.02,NetBSD+Arduino,2013-10-25 21:42:00,
2013-10-25 14:47:00,51.7,49.1,30.28,South,180,1.5,4.5,90,0.00,,,0.02,NetBSD+Arduino,2013-10-25 21:47:00,
2013-10-25 14:52:00,52.1,49.8,30.27,South,180,2.1,3.0,91,0.00,,,0.02,NetBSD+Arduino,2013-10-25 21:52:00,
2013-10-25 14:57:00,51.8,49.2,30.28,SW,225,0.6,4.5,90,0.00,,,0.02,NetBSD+Arduino,2013-10-25 21:57:00,
2013-10-25 15:02:00,51.8,49.1,30.27,South,180,0.0,4.5,90,0.00,,,0.02,NetBSD+Arduino,2013-10-25 22:02:00,
2013-10-25 15:07:00,51.8,49.2,30.27,South,180,0.0,4.5,90,0.00,,,0.02,NetBSD+Arduino,2013-10-25 22:07:00,
2013-10-25 15:12:00,51.7,49.0,30.27,NE,45,2.7,4.5,90,0.00,,,0.02,NetBSD+Arduino,2013-10-25 22:12:00,
2013-10-25 15:17:00,51.5,48.9,30.27,East,90,3.0,4.5,90,0.00,,,0.02,NetBSD+Arduino,2013-10-25 22:17:00,
2013-10-25 15:22:00,51.5,49.1,30.27,South,180,0.0,4.5,91,0.00,,,0.02,NetBSD+Arduino,2013-10-25 22:22:00,
2013-10-25 15:27:00,51.5,49.3,30.27,East,90,0.3,3.0,92,0.00,,,0.02,NetBSD+Arduino,2013-10-25 22:27:00,
2013-10-25 15:32:00,51.5,49.0,30.28,East,90,0.0,3.0,91,0.00,,,0.02,NetBSD+Arduino,2013-10-25 22:32:00,
2013-10-25 15:37:00,51.4,49.2,30.27,NE,45,1.2,3.0,92,0.00,,,0.02,NetBSD+Arduino,2013-10-25 22:37:00,
2013-10-25 15:42:00,51.5,49.1,30.28,East,90,1.2,3.0,91,0.00,,,0.02,NetBSD+Arduino,2013-10-25 22:42:00,
2013-10-25 15:47:00,51.5,49.4,30.28,South,180,1.5,3.0,92,0.00,,,0.02,NetBSD+Arduino,2013-10-25 22:47:00,
2013-10-25 15:52:00,51.5,49.3,30.28,South,180,1.8,4.5,92,0.00,,,0.02,NetBSD+Arduino,2013-10-25 22:52:00,
2013-10-25 15:57:00,51.5,49.2,30.28,East,90,2.4,4.5,91,0.00,,,0.02,NetBSD+Arduino,2013-10-25 22:57:00,
2013-10-25 16:02:00,51.4,49.2,30.28,SW,225,1.5,4.5,92,0.00,,,0.02,NetBSD+Arduino,2013-10-25 23:02:00,
2013-10-25 16:07:00,51.5,49.4,30.28,NE,45,2.7,3.0,92,0.00,,,0.02,NetBSD+Arduino,2013-10-25 23:07:00,
2013-10-25 16:12:00,51.4,49.3,30.28,East,90,0.0,3.0,92,0.00,,,0.02,NetBSD+Arduino,2013-10-25 23:12:00,
2013-10-25 16:17:00,51.5,49.2,30.28,East,90,2.2,3.0,92,0.00,,,0.02,NetBSD+Arduino,2013-10-25 23:17:00,
2013-10-25 16:22:00,51.4,49.3,30.28,NE,45,1.5,3.0,92,0.00,,,0.02,NetBSD+Arduino,2013-10-25 23:22:00,
2013-10-25 16:27:00,51.1,48.9,30.29,East,90,0.9,3.0,91,0.00,,,0.02,NetBSD+Arduino,2013-10-25 23:27:00,
2013-10-25 16:32:00,51.1,49.0,30.29,NE,45,0.0,4.5,92,0.00,,,0.02,NetBSD+Arduino,2013-10-25 23:32:00,
2013-10-25 16:37:00,51.1,49.1,30.29,NE,45,0.7,4.5,92,0.00,,,0.02,NetBSD+Arduino,2013-10-25 23:37:00,
2013-10-25 16:42:00,51.1,49.0,30.29,NE,45,0.3,3.0,92,0.00,,,0.02,NetBSD+Arduino,2013-10-25 23:42:00,
2013-10-25 16:47:00,51.1,49.0,30.29,NE,45,0.9,3.0,92,0.00,,,0.02,NetBSD+Arduino,2013-10-25 23:47:00,
2013-10-25 16:52:00,51.1,49.2,30.29,NE,45,0.0,1.5,93,0.00,,,0.02,NetBSD+Arduino,2013-10-25 23:52:00,
2013-10-25 16:57:00,51.0,49.3,30.29,NE,45,2.4,3.0,93,0.00,,,0.02,NetBSD+Arduino,2013-10-25 23:57:00,
2013-10-25 17:02:00,51.0,49.1,30.29,North,0,0.9,3.0,93,0.00,,,0.02,NetBSD+Arduino,2013-10-26 00:02:00,
2013-10-25 17:07:00,51.0,49.2,30.30,NE,45,2.0,3.0,93,0.00,,,0.02,NetBSD+Arduino,2013-10-26 00:07:00,
2013-10-25 17:12:00,51.0,49.4,30.29,NE,45,0.6,3.0,94,0.00,,,0.02,NetBSD+Arduino,2013-10-26 00:12:00,
2013-10-25 17:17:00,51.0,49.3,30.29,NE,45,0.0,1.5,93,0.00,,,0.02,NetBSD+Arduino,2013-10-26 00:17:00,
2013-10-25 17:22:00,51.0,49.1,30.29,NE,45,0.0,0.0,93,0.00,,,0.02,NetBSD+Arduino,2013-10-26 00:22:00,
2013-10-25 17:27:00,51.0,49.2,30.29,NE,45,0.0,3.0,93,0.00,,,0.02,NetBSD+Arduino,2013-10-26 00:27:00,
2013-10-25 17:32:00,50.9,49.0,30.29,NE,45,0.9,3.0,93,0.00,,,0.02,NetBSD+Arduino,2013-10-26 00:32:00,
2013-10-25 17:37:00,50.8,48.9,30.29,NE,45,0.0,3.0,93,0.00,,,0.02,NetBSD+Arduino,2013-10-26 00:37:00,
2013-10-25 17:42:00,50.8,49.2,30.29,NE,45,0.0,3.0,93,0.00,,,0.02,NetBSD+Arduino,2013-10-26 00:42:00,
2013-10-25 17:47:00,50.8,48.8,30.29,NE,45,0.0,1.5,93,0.00,,,0.02,NetBSD+Arduino,2013-10-26 00:47:00,
2013-10-25 17:52:00,50.7,49.0,30.29,NE,45,1.2,1.5,93,0.00,,,0.02,NetBSD+Arduino,2013-10-26 00:52:00,
2013-10-25 17:57:00,50.7,48.8,30.29,NE,45,0.5,1.5,93,0.00,,,0.02,NetBSD+Arduino,2013-10-26 00:57:00,
2013-10-25 18:02:00,50.7,49.0,30.29,NE,45,0.3,1.5,93,0.00,,,0.02,NetBSD+Arduino,2013-10-26 01:02:00,
2013-10-25 18:07:00,50.7,48.9,30.29,East,90,1.5,3.0,93,0.00,,,0.02,NetBSD+Arduino,2013-10-26 01:07:00,
2013-10-25 18:12:00,50.5,48.9,30.29,NE,45,0.0,3.0,93,0.00,,,0.02,NetBSD+Arduino,2013-10-26 01:12:00,
2013-10-25 18:17:00,50.5,48.9,30.29,NE,45,1.0,1.5,93,0.00,,,0.02,NetBSD+Arduino,2013-10-26 01:17:00,
2013-10-25 18:22:00,50.5,49.1,30.29,North,0,1.2,3.0,94,0.00,,,0.02,NetBSD+Arduino,2013-10-26 01:22:00,
2013-10-25 18:27:00,50.5,49.1,30.30,NE,45,0.0,3.0,94,0.00,,,0.02,NetBSD+Arduino,2013-10-26 01:27:00,
2013-10-25 18:32:00,50.5,49.0,30.30,NE,45,0.0,3.0,94,0.00,,,0.02,NetBSD+Arduino,2013-10-26 01:32:00,
2013-10-25 18:37:00,50.4,49.2,30.30,NE,45,0.0,0.0,95,0.00,,,0.02,NetBSD+Arduino,2013-10-26 01:37:00,
2013-10-25 18:42:00,50.2,48.8,30.30,NE,45,1.0,1.5,94,0.00,,,0.02,NetBSD+Arduino,2013-10-26 01:42:00,
2013-10-25 18:47:00,50.2,48.9,30.30,NE,45,1.5,3.0,95,0.00,,,0.02,NetBSD+Arduino,2013-10-26 01:47:00,
2013-10-25 18:52:00,50.2,49.0,30.30,NE,45,1.7,3.0,95,0.00,,,0.02,NetBSD+Arduino,2013-10-26 01:52:00,
2013-10-25 18:57:00,50.2,49.0,30.30,North,0,1.0,3.0,95,0.00,,,0.02,NetBSD+Arduino,2013-10-26 01:57:00,
2013-10-25 19:02:00,50.2,48.9,30.30,NE,45,2.2,3.0,95,0.00,,,0.02,NetBSD+Arduino,2013-10-26 02:02:00,
2013-10-25 19:07:00,50.1,48.9,30.31,East,90,0.2,3.0,95,0.00,,,0.02,NetBSD+Arduino,2013-10-26 02:07:00,
2013-10-25 19:12:00,49.8,48.6,30.30,East,90,2.0,6.0,95,0.00,,,0.02,NetBSD+Arduino,2013-10-26 02:12:00,
2013-10-25 19:17:00,49.7,48.6,30.30,NE,45,0.0,3.0,96,0.00,,,0.02,NetBSD+Arduino,2013-10-26 02:17:00,
2013-10-25 19:22:00,49.4,48.3,30.30,NE,45,0.0,1.5,96,0.00,,,0.02,NetBSD+Arduino,2013-10-26 02:22:00,
2013-10-25 19:27:00,49.0,48.2,30.30,NE,45,0.0,0.0,96,0.00,,,0.02,NetBSD+Arduino,2013-10-26 02:27:00,
2013-10-25 19:32:00,48.8,48.2,30.30,North,0,1.2,1.5,97,0.00,,,0.02,NetBSD+Arduino,2013-10-26 02:32:00,
2013-10-25 19:37:00,48.5,48.0,30.31,East,90,0.0,1.5,98,0.00,,,0.02,NetBSD+Arduino,2013-10-26 02:37:00,
2013-10-25 19:42:00,48.2,47.8,30.30,NE,45,0.0,0.0,98,0.00,,,0.02,NetBSD+Arduino,2013-10-26 02:42:00,
2013-10-25 19:47:00,48.0,47.5,30.30,NE,45,0.0,1.5,98,0.00,,,0.02,NetBSD+Arduino,2013-10-26 02:47:00,
2013-10-25 19:52:00,47.7,47.2,30.31,NW,315,0.0,0.0,98,0.00,,,0.02,NetBSD+Arduino,2013-10-26 02:52:00,
2013-10-25 19:57:00,47.4,47.2,30.31,NE,45,0.0,0.0,99,0.00,,,0.02,NetBSD+Arduino,2013-10-26 02:57:00,
2013-10-25 20:02:00,47.2,47.1,30.31,North,0,0.0,0.0,99,0.00,,,0.02,NetBSD+Arduino,2013-10-26 03:02:00,
2013-10-25 20:07:00,47.2,47.2,30.31,North,0,0.0,0.0,99,0.00,,,0.02,NetBSD+Arduino,2013-10-26 03:07:00,
2013-10-25 20:12:00,47.1,47.0,30.32,North,0,0.0,1.5,99,0.00,,,0.02,NetBSD+Arduino,2013-10-26 03:12:00,
2013-10-25 20:17:00,47.1,47.1,30.31,NE,45,0.0,1.5,100,0.00,,,0.02,NetBSD+Arduino,2013-10-26 03:17:00,
2013-10-25 20:22:00,46.8,46.7,30.31,NE,45,0.0,1.5,99,0.00,,,0.02,NetBSD+Arduino,2013-10-26 03:22:00,
2013-10-25 20:27:00,46.7,46.7,30.31,NE,45,1.0,1.5,100,0.00,,,0.02,NetBSD+Arduino,2013-10-26 03:27:00,
2013-10-25 20:32:00,46.9,46.9,30.32,North,0,0.0,1.5,100,0.00,,,0.02,NetBSD+Arduino,2013-10-26 03:32:00,
2013-10-25 20:37:00,46.7,46.7,30.31,North,0,0.0,0.0,100,0.00,,,0.02,NetBSD+Arduino,2013-10-26 03:37:00,
2013-10-25 20:42:00,46.7,46.7,30.32,NW,315,0.0,0.0,100,0.00,,,0.02,NetBSD+Arduino,2013-10-26 03:42:00,
2013-10-25 20:47:00,46.7,46.7,30.31,North,0,0.0,1.5,100,0.00,,,0.02,NetBSD+Arduino,2013-10-26 03:47:00,
2013-10-25 20:52:00,46.6,46.6,30.32,North,0,2.0,3.0,100,0.00,,,0.02,NetBSD+Arduino,2013-10-26 03:52:00,
2013-10-25 20:57:00,46.5,46.5,30.31,North,0,0.2,3.0,100,0.00,,,0.02,NetBSD+Arduino,2013-10-26 03:57:00,
2013-10-25 21:01:00,46.5,46.5,30.32,North,0,1.2,3.0,100,0.00,,,0.02,NetBSD+Arduino,2013-10-26 04:01:00,
2013-10-25 21:02:00,46.6,46.6,30.32,NW,315,1.7,3.0,100,0.00,,,0.02,NetBSD+Arduino,2013-10-26 04:02:00,
2013-10-25 21:03:00,46.7,46.7,30.32,North,0,0.0,3.0,100,0.00,,,0.02,NetBSD+Arduino,2013-10-26 04:03:00,
2013-10-25 21:08:00,46.8,46.8,30.32,North,0,1.5,3.0,100,0.00,,,0.02,NetBSD+Arduino,2013-10-26 04:08:00,
2013-10-25 21:12:00,46.8,46.8,30.32,North,0,0.5,3.0,100,0.00,,,0.02,NetBSD+Arduino,2013-10-26 04:12:00,
2013-10-25 21:17:00,46.7,46.7,30.32,NW,315,1.5,3.0,100,0.00,,,0.02,NetBSD+Arduino,2013-10-26 04:17:00,
2013-10-25 21:20:00,46.7,46.7,30.32,NW,315,1.0,3.0,100,0.00,,,0.02,NetBSD+Arduino,2013-10-26 04:20:00,
2013-10-25 21:25:00,46.7,46.7,30.32,North,0,1.0,3.0,100,0.00,,,0.02,NetBSD+Arduino,2013-10-26 04:25:00,
2013-10-25 21:30:00,46.5,46.5,30.32,NE,45,1.0,3.0,100,0.00,,,0.02,NetBSD+Arduino,2013-10-26 04:30:00,
2013-10-25 21:35:00,46.5,46.5,30.32,North,0,0.7,3.0,100,0.00,,,0.02,NetBSD+Arduino,2013-10-26 04:35:00,
2013-10-25 21:41:00,46.5,46.5,30.32,North,0,1.0,3.0,100,0.00,,,0.02,NetBSD+Arduino,2013-10-26 04:41:00,
2013-10-25 21:46:00,46.4,46.4,30.32,North,0,1.5,3.0,100,0.00,,,0.02,NetBSD+Arduino,2013-10-26 04:46:00,
2013-10-25 21:51:00,46.3,46.3,30.32,North,0,1.5,3.0,100,0.00,,,0.02,NetBSD+Arduino,2013-10-26 04:51:00,
2013-10-25 21:56:00,46.2,46.2,30.32,West,270,0.0,3.0,100,0.00,,,0.02,NetBSD+Arduino,2013-10-26 04:56:00,
2013-10-25 22:01:00,46.1,46.1,30.32,North,0,3.2,4.5,100,0.00,,,0.02,NetBSD+Arduino,2013-10-26 05:01:00,
2013-10-25 22:06:00,46.1,46.1,30.32,North,0,1.7,4.5,100,0.00,,,0.02,NetBSD+Arduino,2013-10-26 05:06:00,
2013-10-25 22:11:00,46.1,46.1,30.32,NW,315,1.5,4.5,100,0.00,,,0.02,NetBSD+Arduino,2013-10-26 05:11:00,
2013-10-25 22:16:00,45.9,45.9,30.32,North,0,3.0,4.5,100,0.00,,,0.02,NetBSD+Arduino,2013-10-26 05:16:00,
2013-10-25 22:21:00,45.9,45.9,30.32,NW,315,1.7,4.5,100,0.00,,,0.02,NetBSD+Arduino,2013-10-26 05:21:00,
2013-10-25 22:26:00,45.9,45.9,30.33,NW,315,1.7,4.5,100,0.00,,,0.02,NetBSD+Arduino,2013-10-26 05:26:00,
2013-10-25 22:31:00,45.9,45.9,30.33,NE,45,2.0,6.0,100,0.00,,,0.02,NetBSD+Arduino,2013-10-26 05:31:00,
2013-10-25 22:37:00,45.9,45.9,30.33,East,90,0.5,6.0,100,0.00,,,0.02,NetBSD+Arduino,2013-10-26 05:37:00,
2013-10-25 22:42:00,46.0,46.0,30.32,North,0,4.2,4.5,100,0.00,,,0.02,NetBSD+Arduino,2013-10-26 05:42:00,
2013-10-25 22:47:00,45.9,45.9,30.32,North,0,2.1,4.5,100,0.00,,,0.02,NetBSD+Arduino,2013-10-26 05:47:00,
2013-10-25 22:52:00,45.9,45.9,30.33,North,0,3.3,4.5,100,0.00,,,0.02,NetBSD+Arduino,2013-10-26 05:52:00,
2013-10-25 22:57:00,45.9,45.9,30.33,North,0,1.2,4.5,100,0.00,,,0.02,NetBSD+Arduino,2013-10-26 05:57:00,
2013-10-25 23:02:00,45.9,45.9,30.33,NE,45,2.1,4.5,100,0.00,,,0.02,NetBSD+Arduino,2013-10-26 06:02:00,
2013-10-25 23:07:00,45.9,45.9,30.32,NE,45,0.9,3.0,100,0.00,,,0.02,NetBSD+Arduino,2013-10-26 06:07:00,
2013-10-25 23:12:00,45.9,45.9,30.32,North,0,0.9,4.5,100,0.00,,,0.02,NetBSD+Arduino,2013-10-26 06:12:00,
2013-10-25 23:17:00,45.9,45.9,30.32,North,0,2.1,4.5,100,0.00,,,0.02,NetBSD+Arduino,2013-10-26 06:17:00,
2013-10-25 23:22:00,45.9,45.9,30.32,North,0,1.8,4.5,100,0.00,,,0.02,NetBSD+Arduino,2013-10-26 06:22:00,
2013-10-25 23:27:00,46.1,46.1,30.32,North,0,0.6,3.0,100,0.00,,,0.02,NetBSD+Arduino,2013-10-26 06:27:00,
2013-10-25 23:32:00,46.1,46.1,30.32,NE,45,2.1,3.0,100,0.00,,,0.02,NetBSD+Arduino,2013-10-26 06:32:00,
2013-10-25 23:37:00,46.2,46.2,30.32,North,0,1.2,3.0,100,0.00,,,0.02,NetBSD+Arduino,2013-10-26 06:37:00,
2013-10-25 23:42:00,46.2,46.2,30.32,North,0,1.5,3.0,100,0.00,,,0.02,NetBSD+Arduino,2013-10-26 06:42:00,
2013-10-25 23:47:00,46.2,46.2,30.32,North,0,0.0,3.0,100,0.00,,,0.02,NetBSD+Arduino,2013-10-26 06:47:00,
2013-10-25 23:52:00,46.1,46.1,30.33,NE,45,0.5,3.0,100,0.00,,,0.02,NetBSD+Arduino,2013-10-26 06:52:00,
2013-10-25 23:57:00,46.1,46.1,30.32,NE,45,0.3,3.0,100,0.00,,,0.02,NetBSD+Arduino,2013-10-26 06:57:00,